sensor_id;sensor_type;location;lat;lon;timestamp;pressure;altitude;pressure_sealevel;temperature;humidity
2036;BME280;23642;42.658;23.350;2023-01-24T00:01:39;49943.63;;;-146.31;95.62
2036;BME280;23642;42.658;23.350;2023-01-24T00:04:08;49906.50;;;-146.31;95.94
2036;BME280;23642;42.658;23.350;2023-01-24T00:06:34;49943.63;;;-146.31;95.58
2036;BME280;23642;42.658;23.350;2023-01-24T00:09:01;49945.69;;;-146.31;94.44
2036;BME280;23642;42.658;23.350;2023-01-24T00:11:28;49972.47;;;-146.31;94.50
2036;BME280;23642;42.658;23.350;2023-01-24T00:13:55;49941.56;;;-146.31;94.49
2036;BME280;23642;42.658;23.350;2023-01-24T00:16:21;49988.97;;;-146.31;94.21
2036;BME280;23642;42.658;23.350;2023-01-24T00:18:48;49986.91;;;-146.31;94.39
2036;BME280;23642;42.658;23.350;2023-01-24T00:21:18;49958.06;;;-146.31;94.49
2036;BME280;23642;42.658;23.350;2023-01-24T00:23:46;49976.59;;;-146.31;94.83
2036;BME280;23642;42.658;23.350;2023-01-24T00:26:14;49962.19;;;-146.31;94.91
2036;BME280;23642;42.658;23.350;2023-01-24T00:28:41;50003.41;;;-146.31;94.06
2036;BME280;23642;42.658;23.350;2023-01-24T00:31:09;50030.22;;;-146.31;94.10
2036;BME280;23642;42.658;23.350;2023-01-24T00:33:35;50019.91;;;-146.31;93.70
2036;BME280;23642;42.658;23.350;2023-01-24T00:36:03;50017.84;;;-146.31;93.59
2036;BME280;23642;42.658;23.350;2023-01-24T00:38:32;50024.03;;;-146.31;93.56
2036;BME280;23642;42.658;23.350;2023-01-24T00:40:58;50028.16;;;-146.31;93.75
2036;BME280;23642;42.658;23.350;2023-01-24T00:43:25;50028.16;;;-146.31;93.89
2036;BME280;23642;42.658;23.350;2023-01-24T00:45:52;50034.34;;;-146.31;93.71
2036;BME280;23642;42.658;23.350;2023-01-24T00:48:19;50036.41;;;-146.31;93.51
2036;BME280;23642;42.658;23.350;2023-01-24T00:50:46;50036.41;;;-146.31;93.60
2036;BME280;23642;42.658;23.350;2023-01-24T00:53:13;50042.59;;;-146.31;93.66
2036;BME280;23642;42.658;23.350;2023-01-24T00:55:44;50034.34;;;-146.31;93.27
2036;BME280;23642;42.658;23.350;2023-01-24T00:58:12;50044.66;;;-146.31;93.35
2036;BME280;23642;42.658;23.350;2023-01-24T01:00:42;50054.97;;;-146.31;93.42
2036;BME280;23642;42.658;23.350;2023-01-24T01:03:11;50081.78;;;-146.31;93.28
2036;BME280;23642;42.658;23.350;2023-01-24T01:05:38;50077.66;;;-146.31;93.38
2036;BME280;23642;42.658;23.350;2023-01-24T01:08:05;50071.47;;;-146.31;93.30
2036;BME280;23642;42.658;23.350;2023-01-24T01:10:32;50077.66;;;-146.31;92.85
2036;BME280;23642;42.658;23.350;2023-01-24T01:13:00;50098.28;;;-146.31;92.84
2036;BME280;23642;42.658;23.350;2023-01-24T01:15:26;50114.78;;;-146.31;92.72
2036;BME280;23642;42.658;23.350;2023-01-24T01:17:53;50106.53;;;-146.31;92.74
2036;BME280;23642;42.658;23.350;2023-01-24T01:20:20;50120.97;;;-146.31;92.47
2036;BME280;23642;42.658;23.350;2023-01-24T01:22:47;50108.59;;;-146.31;92.10
2036;BME280;23642;42.658;23.350;2023-01-24T01:25:13;50123.03;;;-146.31;92.42
2036;BME280;23642;42.658;23.350;2023-01-24T01:27:40;50106.53;;;-146.31;92.62
2036;BME280;23642;42.658;23.350;2023-01-24T01:30:10;50090.03;;;-146.31;92.72
2036;BME280;23642;42.658;23.350;2023-01-24T01:32:37;50090.03;;;-146.31;93.11
2036;BME280;23642;42.658;23.350;2023-01-24T01:35:04;50123.03;;;-146.31;92.44
2036;BME280;23642;42.658;23.350;2023-01-24T01:37:31;50112.72;;;-146.31;92.60
2036;BME280;23642;42.658;23.350;2023-01-24T01:39:57;50127.16;;;-146.31;92.68
2036;BME280;23642;42.658;23.350;2023-01-24T01:42:24;50129.22;;;-146.31;92.48
2036;BME280;23642;42.658;23.350;2023-01-24T01:44:53;50143.66;;;-146.31;92.99
2036;BME280;23642;42.658;23.350;2023-01-24T01:47:25;50145.72;;;-146.31;92.63
2036;BME280;23642;42.658;23.350;2023-01-24T01:49:57;50164.25;;;-146.31;92.20
2036;BME280;23642;42.658;23.350;2023-01-24T01:52:31;50160.13;;;-146.31;91.86
2036;BME280;23642;42.658;23.350;2023-01-24T01:55:02;50174.56;;;-146.31;91.96
2036;BME280;23642;42.658;23.350;2023-01-24T01:57:33;50160.13;;;-146.31;92.49
2036;BME280;23642;42.658;23.350;2023-01-24T02:00:05;50164.25;;;-146.31;92.04
2036;BME280;23642;42.658;23.350;2023-01-24T02:02:35;50145.72;;;-146.31;92.30
2036;BME280;23642;42.658;23.350;2023-01-24T02:05:06;50127.16;;;-146.31;93.05
2036;BME280;23642;42.658;23.350;2023-01-24T02:07:41;50147.78;;;-146.31;92.89
2036;BME280;23642;42.658;23.350;2023-01-24T02:10:10;50168.38;;;-146.31;93.41
2036;BME280;23642;42.658;23.350;2023-01-24T02:12:39;50096.22;;;-146.31;92.78
2036;BME280;23642;42.658;23.350;2023-01-24T02:15:11;50102.41;;;-146.31;92.96
2036;BME280;23642;42.658;23.350;2023-01-24T02:17:57;50151.91;;;-146.31;92.50
2036;BME280;23642;42.658;23.350;2023-01-24T02:20:32;50184.88;;;-146.31;92.54
2036;BME280;23642;42.658;23.350;2023-01-24T02:23:15;50164.25;;;-146.31;92.67
2036;BME280;23642;42.658;23.350;2023-01-24T02:25:47;50168.38;;;-146.31;92.86
2036;BME280;23642;42.658;23.350;2023-01-24T02:28:17;50123.03;;;-146.31;93.26
2036;BME280;23642;42.658;23.350;2023-01-24T02:30:44;50114.78;;;-146.31;93.53
2036;BME280;23642;42.658;23.350;2023-01-24T02:33:14;50131.28;;;-146.31;94.06
2036;BME280;23642;42.658;23.350;2023-01-24T02:35:40;50108.59;;;-146.31;94.10
2036;BME280;23642;42.658;23.350;2023-01-24T02:38:15;50102.41;;;-146.31;93.84
2036;BME280;23642;42.658;23.350;2023-01-24T02:40:43;50098.28;;;-146.31;94.46
2036;BME280;23642;42.658;23.350;2023-01-24T02:43:13;50106.53;;;-146.31;93.84
2036;BME280;23642;42.658;23.350;2023-01-24T02:45:41;50094.16;;;-146.31;94.21
2036;BME280;23642;42.658;23.350;2023-01-24T02:48:08;50094.16;;;-146.31;94.59
2036;BME280;23642;42.658;23.350;2023-01-24T02:50:35;50114.78;;;-146.31;94.00
2036;BME280;23642;42.658;23.350;2023-01-24T02:53:16;50108.59;;;-146.31;94.42
2036;BME280;23642;42.658;23.350;2023-01-24T02:55:58;50090.03;;;-146.31;94.42
2036;BME280;23642;42.658;23.350;2023-01-24T02:58:44;50110.66;;;-146.31;94.04
2036;BME280;23642;42.658;23.350;2023-01-24T03:01:13;50102.41;;;-146.31;94.19
2036;BME280;23642;42.658;23.350;2023-01-24T03:03:41;50135.41;;;-146.31;93.80
2036;BME280;23642;42.658;23.350;2023-01-24T03:06:08;50123.03;;;-146.31;93.40
2036;BME280;23642;42.658;23.350;2023-01-24T03:08:47;50120.97;;;-146.31;94.04
2036;BME280;23642;42.658;23.350;2023-01-24T03:11:18;50127.16;;;-146.31;94.29
2036;BME280;23642;42.658;23.350;2023-01-24T03:13:45;50102.41;;;-146.31;94.21
2036;BME280;23642;42.658;23.350;2023-01-24T03:16:30;50137.47;;;-146.31;93.90
2036;BME280;23642;42.658;23.350;2023-01-24T03:19:15;50127.16;;;-146.31;94.63
2036;BME280;23642;42.658;23.350;2023-01-24T03:21:58;50102.41;;;-146.31;94.55
2036;BME280;23642;42.658;23.350;2023-01-24T03:24:42;50087.97;;;-146.31;94.99
2036;BME280;23642;42.658;23.350;2023-01-24T03:27:27;50123.03;;;-146.31;94.88
2036;BME280;23642;42.658;23.350;2023-01-24T03:30:11;50108.59;;;-146.31;94.89
2036;BME280;23642;42.658;23.350;2023-01-24T03:33:00;50077.66;;;-146.31;95.05
2036;BME280;23642;42.658;23.350;2023-01-24T03:35:47;50046.72;;;-146.31;95.01
2036;BME280;23642;42.658;23.350;2023-01-24T03:38:20;50059.09;;;-146.31;95.32
2036;BME280;23642;42.658;23.350;2023-01-24T03:41:04;50046.72;;;-146.31;95.21
2036;BME280;23642;42.658;23.350;2023-01-24T03:43:31;50081.78;;;-146.31;95.29
2036;BME280;23642;42.658;23.350;2023-01-24T03:45:58;50026.09;;;-146.31;95.87
2036;BME280;23642;42.658;23.350;2023-01-24T03:48:26;50081.78;;;-146.31;95.24
2036;BME280;23642;42.658;23.350;2023-01-24T03:51:00;50024.03;;;-146.31;95.51
2036;BME280;23642;42.658;23.350;2023-01-24T03:53:44;50094.16;;;-146.31;94.55
2036;BME280;23642;42.658;23.350;2023-01-24T03:56:11;50065.28;;;-146.31;94.58
2036;BME280;23642;42.658;23.350;2023-01-24T03:58:38;50083.84;;;-146.31;94.54
2036;BME280;23642;42.658;23.350;2023-01-24T04:01:05;50106.53;;;-146.31;94.64
2036;BME280;23642;42.658;23.350;2023-01-24T04:03:33;50112.72;;;-146.31;94.83
2036;BME280;23642;42.658;23.350;2023-01-24T04:06:00;50067.34;;;-146.31;95.21
2036;BME280;23642;42.658;23.350;2023-01-24T04:08:26;50100.34;;;-146.31;95.12
2036;BME280;23642;42.658;23.350;2023-01-24T04:10:55;50071.47;;;-146.31;95.11
2036;BME280;23642;42.658;23.350;2023-01-24T04:13:21;50067.34;;;-146.31;95.09
2036;BME280;23642;42.658;23.350;2023-01-24T04:15:48;50069.41;;;-146.31;94.87
2036;BME280;23642;42.658;23.350;2023-01-24T04:18:15;50083.84;;;-146.31;94.81
2036;BME280;23642;42.658;23.350;2023-01-24T04:20:43;50096.22;;;-146.31;94.28
2036;BME280;23642;42.658;23.350;2023-01-24T04:23:10;50077.66;;;-146.31;95.21
2036;BME280;23642;42.658;23.350;2023-01-24T04:25:37;50077.66;;;-146.31;95.12
2036;BME280;23642;42.658;23.350;2023-01-24T04:28:04;50079.72;;;-146.31;94.60
2036;BME280;23642;42.658;23.350;2023-01-24T04:30:31;50100.34;;;-146.31;94.19
2036;BME280;23642;42.658;23.350;2023-01-24T04:32:58;50120.97;;;-146.31;94.54
2036;BME280;23642;42.658;23.350;2023-01-24T04:35:26;50102.41;;;-146.31;94.57
2036;BME280;23642;42.658;23.350;2023-01-24T04:37:58;50110.66;;;-146.31;94.59
2036;BME280;23642;42.658;23.350;2023-01-24T04:40:25;50063.22;;;-146.31;94.21
2036;BME280;23642;42.658;23.350;2023-01-24T04:42:52;50123.03;;;-146.31;93.70
2036;BME280;23642;42.658;23.350;2023-01-24T04:45:20;50098.28;;;-146.31;94.30
2036;BME280;23642;42.658;23.350;2023-01-24T04:47:47;50100.34;;;-146.31;94.10
2036;BME280;23642;42.658;23.350;2023-01-24T04:50:14;50118.91;;;-146.31;94.40
2036;BME280;23642;42.658;23.350;2023-01-24T04:52:41;50120.97;;;-146.31;94.00
2036;BME280;23642;42.658;23.350;2023-01-24T04:55:09;50114.78;;;-146.31;94.83
2036;BME280;23642;42.658;23.350;2023-01-24T04:57:36;50073.53;;;-146.31;94.91
2036;BME280;23642;42.658;23.350;2023-01-24T05:00:03;50087.97;;;-146.31;93.95
2036;BME280;23642;42.658;23.350;2023-01-24T05:02:30;50129.22;;;-146.31;94.18
2036;BME280;23642;42.658;23.350;2023-01-24T05:04:57;50092.09;;;-146.31;94.06
2036;BME280;23642;42.658;23.350;2023-01-24T05:07:24;50145.72;;;-146.31;94.15
2036;BME280;23642;42.658;23.350;2023-01-24T05:09:51;50131.28;;;-146.31;93.81
2036;BME280;23642;42.658;23.350;2023-01-24T05:12:19;50106.53;;;-146.31;94.31
2036;BME280;23642;42.658;23.350;2023-01-24T05:14:46;50114.78;;;-146.31;94.80
2036;BME280;23642;42.658;23.350;2023-01-24T05:17:12;50123.03;;;-146.31;94.11
2036;BME280;23642;42.658;23.350;2023-01-24T05:19:39;50096.22;;;-146.31;94.51
2036;BME280;23642;42.658;23.350;2023-01-24T05:22:06;50139.53;;;-146.31;94.37
2036;BME280;23642;42.658;23.350;2023-01-24T05:24:32;50087.97;;;-146.31;95.13
2036;BME280;23642;42.658;23.350;2023-01-24T05:26:59;50092.09;;;-146.31;95.36
2036;BME280;23642;42.658;23.350;2023-01-24T05:29:27;50071.47;;;-146.31;94.92
2036;BME280;23642;42.658;23.350;2023-01-24T05:31:54;50092.09;;;-146.31;95.22
2036;BME280;23642;42.658;23.350;2023-01-24T05:34:21;50098.28;;;-146.31;95.21
2036;BME280;23642;42.658;23.350;2023-01-24T05:36:48;50073.53;;;-146.31;95.55
2036;BME280;23642;42.658;23.350;2023-01-24T05:39:14;50073.53;;;-146.31;95.31
2036;BME280;23642;42.658;23.350;2023-01-24T05:41:41;50071.47;;;-146.31;95.78
2036;BME280;23642;42.658;23.350;2023-01-24T05:44:08;50061.16;;;-146.31;95.86
2036;BME280;23642;42.658;23.350;2023-01-24T05:46:36;50032.28;;;-146.31;96.25
2036;BME280;23642;42.658;23.350;2023-01-24T05:49:03;50013.72;;;-146.31;96.31
2036;BME280;23642;42.658;23.350;2023-01-24T05:51:30;50024.03;;;-146.31;95.79
2036;BME280;23642;42.658;23.350;2023-01-24T05:53:56;50032.28;;;-146.31;96.26
2036;BME280;23642;42.658;23.350;2023-01-24T05:56:23;50001.34;;;-146.31;96.74
2036;BME280;23642;42.658;23.350;2023-01-24T05:58:50;50019.91;;;-146.31;96.74
2036;BME280;23642;42.658;23.350;2023-01-24T06:01:18;50017.84;;;-146.31;96.06
2036;BME280;23642;42.658;23.350;2023-01-24T06:03:48;50009.59;;;-146.31;96.41
2036;BME280;23642;42.658;23.350;2023-01-24T06:06:16;50007.53;;;-146.31;96.06
2036;BME280;23642;42.658;23.350;2023-01-24T06:08:44;50005.47;;;-146.31;96.59
2036;BME280;23642;42.658;23.350;2023-01-24T06:11:13;49999.28;;;-146.31;95.99
2036;BME280;23642;42.658;23.350;2023-01-24T06:13:40;50011.66;;;-146.31;96.01
2036;BME280;23642;42.658;23.350;2023-01-24T06:16:09;49991.03;;;-146.31;96.42
2036;BME280;23642;42.658;23.350;2023-01-24T06:18:36;50017.84;;;-146.31;96.31
2036;BME280;23642;42.658;23.350;2023-01-24T06:21:06;50024.03;;;-146.31;95.82
2036;BME280;23642;42.658;23.350;2023-01-24T06:23:34;49982.78;;;-146.31;96.61
2036;BME280;23642;42.658;23.350;2023-01-24T06:26:01;49988.97;;;-146.31;96.70
2036;BME280;23642;42.658;23.350;2023-01-24T06:28:28;49970.44;;;-146.31;97.06
2036;BME280;23642;42.658;23.350;2023-01-24T06:31:02;49937.44;;;-146.31;97.58
2036;BME280;23642;42.658;23.350;2023-01-24T06:33:37;49916.81;;;-146.31;98.29
2036;BME280;23642;42.658;23.350;2023-01-24T06:36:24;49871.44;;;-146.31;98.14
2036;BME280;23642;42.658;23.350;2023-01-24T06:38:56;49857.00;;;-146.31;98.00
2036;BME280;23642;42.658;23.350;2023-01-24T06:41:26;49832.25;;;-146.31;97.79
2036;BME280;23642;42.658;23.350;2023-01-24T06:43:53;49836.38;;;-146.31;97.98
2036;BME280;23642;42.658;23.350;2023-01-24T06:46:20;49836.38;;;-146.31;97.80
2036;BME280;23642;42.658;23.350;2023-01-24T06:48:47;49821.97;;;-146.31;97.81
2036;BME280;23642;42.658;23.350;2023-01-24T06:51:15;49817.84;;;-146.31;97.80
2036;BME280;23642;42.658;23.350;2023-01-24T06:53:42;49815.78;;;-146.31;98.01
2036;BME280;23642;42.658;23.350;2023-01-24T06:56:09;49803.41;;;-146.31;98.08
2036;BME280;23642;42.658;23.350;2023-01-24T06:58:35;49788.97;;;-146.31;98.08
2036;BME280;23642;42.658;23.350;2023-01-24T07:01:03;49821.97;;;-146.31;97.34
2036;BME280;23642;42.658;23.350;2023-01-24T07:03:29;49821.97;;;-146.31;97.73
2036;BME280;23642;42.658;23.350;2023-01-24T07:05:56;49801.34;;;-146.31;97.71
2036;BME280;23642;42.658;23.350;2023-01-24T07:08:25;49819.91;;;-146.31;97.59
2036;BME280;23642;42.658;23.350;2023-01-24T07:10:51;49813.72;;;-146.31;97.74
2036;BME280;23642;42.658;23.350;2023-01-24T07:13:19;49795.16;;;-146.31;97.49
2036;BME280;23642;42.658;23.350;2023-01-24T07:15:47;49828.13;;;-146.31;97.49
2036;BME280;23642;42.658;23.350;2023-01-24T07:18:16;49795.16;;;-146.31;97.85
2036;BME280;23642;42.658;23.350;2023-01-24T07:20:43;49782.78;;;-146.31;97.44
2036;BME280;23642;42.658;23.350;2023-01-24T07:23:20;49803.41;;;-146.31;98.17
2036;BME280;23642;42.658;23.350;2023-01-24T07:25:50;49780.72;;;-146.31;98.05
2036;BME280;23642;42.658;23.350;2023-01-24T07:28:18;49749.78;;;-146.31;98.17
2036;BME280;23642;42.658;23.350;2023-01-24T07:30:45;49743.59;;;-146.31;98.45
2036;BME280;23642;42.658;23.350;2023-01-24T07:33:11;49770.41;;;-146.31;97.08
2036;BME280;23642;42.658;23.350;2023-01-24T07:35:39;49793.09;;;-146.31;97.56
2036;BME280;23642;42.658;23.350;2023-01-24T07:38:06;49739.47;;;-146.31;98.19
2036;BME280;23642;42.658;23.350;2023-01-24T07:40:33;49772.47;;;-146.31;97.46
2036;BME280;23642;42.658;23.350;2023-01-24T07:43:01;49782.78;;;-146.31;97.61
2036;BME280;23642;42.658;23.350;2023-01-24T07:45:28;49788.97;;;-146.31;97.54
2036;BME280;23642;42.658;23.350;2023-01-24T07:47:56;49743.59;;;-146.31;98.06
2036;BME280;23642;42.658;23.350;2023-01-24T07:50:28;49727.09;;;-146.31;98.11
2036;BME280;23642;42.658;23.350;2023-01-24T07:53:04;49706.47;;;-146.31;98.91
2036;BME280;23642;42.658;23.350;2023-01-24T07:55:34;49675.56;;;-146.31;99.02
2036;BME280;23642;42.658;23.350;2023-01-24T07:58:03;49654.94;;;-146.31;98.44
2036;BME280;23642;42.658;23.350;2023-01-24T08:00:30;49617.81;;;-146.31;98.86
2036;BME280;23642;42.658;23.350;2023-01-24T08:02:57;49638.44;;;-146.31;99.08
2036;BME280;23642;42.658;23.350;2023-01-24T08:05:27;49584.84;;;-146.31;98.91
2036;BME280;23642;42.658;23.350;2023-01-24T08:07:56;49543.59;;;-146.31;99.17
2036;BME280;23642;42.658;23.350;2023-01-24T08:10:23;49549.78;;;-146.31;99.01
2036;BME280;23642;42.658;23.350;2023-01-24T08:12:50;49545.66;;;-146.31;98.54
2036;BME280;23642;42.658;23.350;2023-01-24T08:15:19;49566.28;;;-146.31;98.74
2036;BME280;23642;42.658;23.350;2023-01-24T08:17:46;49525.03;;;-146.31;99.38
2036;BME280;23642;42.658;23.350;2023-01-24T08:23:11;49539.47;;;-146.31;98.48
2036;BME280;23642;42.658;23.350;2023-01-24T08:25:38;49547.72;;;-146.31;99.24
2036;BME280;23642;42.658;23.350;2023-01-24T08:28:05;49613.69;;;-146.31;98.59
2036;BME280;23642;42.658;23.350;2023-01-24T08:30:35;49566.28;;;-146.31;98.52
2036;BME280;23642;42.658;23.350;2023-01-24T08:33:04;49562.16;;;-146.31;98.95
2036;BME280;23642;42.658;23.350;2023-01-24T08:35:32;49605.44;;;-146.31;98.58
2036;BME280;23642;42.658;23.350;2023-01-24T08:38:02;49576.59;;;-146.31;99.06
2036;BME280;23642;42.658;23.350;2023-01-24T08:40:29;49520.91;;;-146.31;99.63
2036;BME280;23642;42.658;23.350;2023-01-24T08:42:59;49496.16;;;-146.31;99.66
2036;BME280;23642;42.658;23.350;2023-01-24T08:45:25;49543.59;;;-146.31;98.99
2036;BME280;23642;42.658;23.350;2023-01-24T08:47:53;49591.03;;;-146.31;99.51
2036;BME280;23642;42.658;23.350;2023-01-24T08:50:20;49566.28;;;-146.31;99.23
2036;BME280;23642;42.658;23.350;2023-01-24T08:52:48;49487.94;;;-146.31;99.96
2036;BME280;23642;42.658;23.350;2023-01-24T08:55:15;49461.13;;;-146.31;99.12
2036;BME280;23642;42.658;23.350;2023-01-24T08:57:42;49558.03;;;-146.31;99.17
2036;BME280;23642;42.658;23.350;2023-01-24T09:00:10;49444.63;;;-146.31;99.72
2036;BME280;23642;42.658;23.350;2023-01-24T09:02:37;49405.44;;;-146.31;99.74
2036;BME280;23642;42.658;23.350;2023-01-24T09:05:06;49502.34;;;-146.31;98.28
2036;BME280;23642;42.658;23.350;2023-01-24T09:07:34;49562.16;;;-146.31;98.06
2036;BME280;23642;42.658;23.350;2023-01-24T09:10:01;49541.53;;;-146.31;98.47
2036;BME280;23642;42.658;23.350;2023-01-24T09:12:28;49584.84;;;-146.31;97.89
2036;BME280;23642;42.658;23.350;2023-01-24T09:14:58;49588.97;;;-146.31;97.46
2036;BME280;23642;42.658;23.350;2023-01-24T09:17:24;49648.75;;;-146.31;97.04
2036;BME280;23642;42.658;23.350;2023-01-24T09:19:51;49646.69;;;-146.31;96.96
2036;BME280;23642;42.658;23.350;2023-01-24T09:22:19;49667.31;;;-146.31;97.39
2036;BME280;23642;42.658;23.350;2023-01-24T09:24:48;49731.22;;;-146.31;96.70
2036;BME280;23642;42.658;23.350;2023-01-24T09:27:15;49758.03;;;-146.31;96.64
2036;BME280;23642;42.658;23.350;2023-01-24T09:29:44;49774.53;;;-146.31;96.69
2036;BME280;23642;42.658;23.350;2023-01-24T09:32:11;49729.16;;;-146.31;97.11
2036;BME280;23642;42.658;23.350;2023-01-24T09:34:40;49718.84;;;-146.31;97.03
2036;BME280;23642;42.658;23.350;2023-01-24T09:37:16;49892.06;;;-146.31;95.29
2036;BME280;23642;42.658;23.350;2023-01-24T09:39:49;49900.31;;;-146.31;95.39
2036;BME280;23642;42.658;23.350;2023-01-24T09:42:22;49871.44;;;-146.31;96.06
2036;BME280;23642;42.658;23.350;2023-01-24T09:44:58;49846.69;;;-146.31;95.50
2036;BME280;23642;42.658;23.350;2023-01-24T09:47:42;49920.94;;;-146.31;95.22
2036;BME280;23642;42.658;23.350;2023-01-24T09:50:15;49797.22;;;-146.31;96.88
2036;BME280;23642;42.658;23.350;2023-01-24T09:52:44;49842.56;;;-146.31;95.15
2036;BME280;23642;42.658;23.350;2023-01-24T09:55:16;49865.25;;;-146.31;94.64
2036;BME280;23642;42.658;23.350;2023-01-24T09:57:56;49865.25;;;-146.31;94.82
2036;BME280;23642;42.658;23.350;2023-01-24T10:00:26;49916.81;;;-146.31;94.49
2036;BME280;23642;42.658;23.350;2023-01-24T10:02:55;49861.13;;;-146.31;95.32
2036;BME280;23642;42.658;23.350;2023-01-24T10:05:27;49863.19;;;-146.31;94.40
2036;BME280;23642;42.658;23.350;2023-01-24T10:08:08;49861.13;;;-146.31;95.10
2036;BME280;23642;42.658;23.350;2023-01-24T10:10:45;49854.94;;;-146.31;95.33
2036;BME280;23642;42.658;23.350;2023-01-24T10:19:10;49894.13;;;-146.31;95.18
2036;BME280;23642;42.658;23.350;2023-01-24T10:22:07;49937.44;;;-146.31;94.89
2036;BME280;23642;42.658;23.350;2023-01-24T10:24:45;49970.44;;;-146.31;95.51
2036;BME280;23642;42.658;23.350;2023-01-24T10:27:23;49912.69;;;-146.31;96.66
2036;BME280;23642;42.658;23.350;2023-01-24T10:30:12;49867.31;;;-146.31;96.19
2036;BME280;23642;42.658;23.350;2023-01-24T10:32:41;49892.06;;;-146.31;95.92
2036;BME280;23642;42.658;23.350;2023-01-24T10:35:13;49962.19;;;-146.31;95.55
2036;BME280;23642;42.658;23.350;2023-01-24T10:37:45;49879.69;;;-146.31;96.29
2036;BME280;23642;42.658;23.350;2023-01-24T10:40:22;49840.50;;;-146.31;96.09
2036;BME280;23642;42.658;23.350;2023-01-24T10:42:52;49803.41;;;-146.31;96.74
2036;BME280;23642;42.658;23.350;2023-01-24T10:45:29;49869.38;;;-146.31;95.71
2036;BME280;23642;42.658;23.350;2023-01-24T10:48:18;49881.75;;;-146.31;95.41
2036;BME280;23642;42.658;23.350;2023-01-24T10:50:53;49871.44;;;-146.31;95.96
2036;BME280;23642;42.658;23.350;2023-01-24T10:53:23;49821.97;;;-146.31;95.94
2036;BME280;23642;42.658;23.350;2023-01-24T10:55:57;49830.19;;;-146.31;96.12
2036;BME280;23642;42.658;23.350;2023-01-24T10:58:27;49811.66;;;-146.31;96.23
2036;BME280;23642;42.658;23.350;2023-01-24T11:00:59;49859.06;;;-146.31;95.11
2036;BME280;23642;42.658;23.350;2023-01-24T11:03:28;49834.31;;;-146.31;95.95
2036;BME280;23642;42.658;23.350;2023-01-24T11:05:57;49854.94;;;-146.31;95.82
2036;BME280;23642;42.658;23.350;2023-01-24T11:08:26;49811.66;;;-146.31;96.00
2036;BME280;23642;42.658;23.350;2023-01-24T11:10:58;49850.81;;;-146.31;95.35
2036;BME280;23642;42.658;23.350;2023-01-24T11:13:35;49788.97;;;-146.31;95.70
2036;BME280;23642;42.658;23.350;2023-01-24T11:16:05;49801.34;;;-146.31;96.22
2036;BME280;23642;42.658;23.350;2023-01-24T11:18:33;49813.72;;;-146.31;96.25
2036;BME280;23642;42.658;23.350;2023-01-24T11:21:06;49782.78;;;-146.31;96.80
2036;BME280;23642;42.658;23.350;2023-01-24T11:23:35;49774.53;;;-146.31;96.66
2036;BME280;23642;42.658;23.350;2023-01-24T11:26:04;49778.66;;;-146.31;96.80
2036;BME280;23642;42.658;23.350;2023-01-24T11:28:34;49770.41;;;-146.31;96.64
2036;BME280;23642;42.658;23.350;2023-01-24T11:31:04;49735.34;;;-146.31;97.54
2036;BME280;23642;42.658;23.350;2023-01-24T11:33:51;49758.03;;;-146.31;97.26
2036;BME280;23642;42.658;23.350;2023-01-24T11:36:33;49772.47;;;-146.31;96.84
2036;BME280;23642;42.658;23.350;2023-01-24T11:39:13;49661.13;;;-146.31;97.49
2036;BME280;23642;42.658;23.350;2023-01-24T11:41:49;49714.72;;;-146.31;96.69
2036;BME280;23642;42.658;23.350;2023-01-24T11:44:39;49743.59;;;-146.31;96.84
2036;BME280;23642;42.658;23.350;2023-01-24T11:47:15;49729.16;;;-146.31;96.59
2036;BME280;23642;42.658;23.350;2023-01-24T11:50:13;49788.97;;;-146.31;96.09
2036;BME280;23642;42.658;23.350;2023-01-24T11:55:52;49788.97;;;-146.31;95.81
2036;BME280;23642;42.658;23.350;2023-01-24T11:58:34;49846.69;;;-146.31;95.69
2036;BME280;23642;42.658;23.350;2023-01-24T12:01:13;49797.22;;;-146.31;96.04
2036;BME280;23642;42.658;23.350;2023-01-24T12:04:15;49842.56;;;-146.31;95.54
2036;BME280;23642;42.658;23.350;2023-01-24T12:06:50;49871.44;;;-146.31;95.40
2036;BME280;23642;42.658;23.350;2023-01-24T12:09:24;49875.56;;;-146.31;95.37
2036;BME280;23642;42.658;23.350;2023-01-24T12:12:05;49805.47;;;-146.31;95.31
2036;BME280;23642;42.658;23.350;2023-01-24T12:14:49;49846.69;;;-146.31;94.44
2036;BME280;23642;42.658;23.350;2023-01-24T12:17:31;49916.81;;;-146.31;93.83
2036;BME280;23642;42.658;23.350;2023-01-24T12:20:40;49923.00;;;-146.31;94.04
2036;BME280;23642;42.658;23.350;2023-01-24T12:23:20;49904.44;;;-146.31;93.27
2036;BME280;23642;42.658;23.350;2023-01-24T12:25:49;49929.19;;;-146.31;93.60
2036;BME280;23642;42.658;23.350;2023-01-24T12:28:25;49949.81;;;-146.31;93.71
2036;BME280;23642;42.658;23.350;2023-01-24T12:31:06;49896.19;;;-146.31;95.06
2036;BME280;23642;42.658;23.350;2023-01-24T12:33:40;49875.56;;;-146.31;94.88
2036;BME280;23642;42.658;23.350;2023-01-24T12:36:13;49875.56;;;-146.31;95.06
2036;BME280;23642;42.658;23.350;2023-01-24T12:39:02;49879.69;;;-146.31;94.71
2036;BME280;23642;42.658;23.350;2023-01-24T12:41:40;49887.94;;;-146.31;94.94
2036;BME280;23642;42.658;23.350;2023-01-24T12:47:31;49918.88;;;-146.31;94.67
2036;BME280;23642;42.658;23.350;2023-01-24T12:50:13;49933.31;;;-146.31;94.40
2036;BME280;23642;42.658;23.350;2023-01-24T12:52:46;49935.38;;;-146.31;94.74
2036;BME280;23642;42.658;23.350;2023-01-24T12:55:24;49986.91;;;-146.31;94.81
2036;BME280;23642;42.658;23.350;2023-01-24T12:57:58;49976.59;;;-146.31;95.05
2036;BME280;23642;42.658;23.350;2023-01-24T13:00:41;49951.88;;;-146.31;95.30
2036;BME280;23642;42.658;23.350;2023-01-24T13:03:49;49958.06;;;-146.31;94.66
2036;BME280;23642;42.658;23.350;2023-01-24T13:06:28;50046.72;;;-146.31;93.26
2036;BME280;23642;42.658;23.350;2023-01-24T13:09:19;50123.03;;;-146.31;92.14
2036;BME280;23642;42.658;23.350;2023-01-24T13:11:55;50147.78;;;-146.31;90.60
2036;BME280;23642;42.658;23.350;2023-01-24T13:14:29;50217.88;;;-146.31;90.06
2036;BME280;23642;42.658;23.350;2023-01-24T13:17:18;50252.94;;;-146.31;90.53